Time;durP1;ratioP1;P1;durP2;ratioP2;P2;SDS_P1;SDS_P2;PMS_P1;PMS_P2;Temp;Humidity;BMP_temperature;BMP_pressure;BME280_temperature;BME280_humidity;BME280_pressure;Samples;Min_cycle;Max_cycle;Signal;HPM_P1;HPM_P2
2022/08/26 00:00:54;;;;;;;12.90;6.72;;;;;;;20.10;92.08;101402.34;5050218;28;20029;-79
2022/08/26 00:03:20;;;;;;;16.63;7.15;;;;;;;20.10;91.92;101395.16;5036593;28;20059;-79
2022/08/26 00:05:46;;;;;;;11.80;7.30;;;;;;;20.08;91.93;101399.00;5029767;28;20132;-79
2022/08/26 00:08:14;;;;;;;17.05;7.15;;;;;;;20.06;91.96;101406.34;5028702;28;20025;-79
2022/08/26 00:10:41;;;;;;;14.57;7.10;;;;;;;20.01;92.46;101407.66;5028997;28;20025;-78
2022/08/26 00:13:08;;;;;;;14.02;7.05;;;;;;;20.00;92.22;101397.09;5061667;28;20033;-79
2022/08/26 00:15:33;;;;;;;13.70;6.95;;;;;;;19.98;92.44;101404.44;5062738;28;20471;-77
2022/08/26 00:17:59;;;;;;;14.77;7.15;;;;;;;19.97;92.33;101408.94;5028969;28;20055;-76
2022/08/26 00:20:27;;;;;;;17.33;7.40;;;;;;;19.97;92.13;101413.47;5050171;28;20029;-78
2022/08/26 00:22:52;;;;;;;16.45;7.50;;;;;;;19.96;92.06;101411.78;5033502;28;20453;-78
2022/08/26 00:25:18;;;;;;;15.25;7.13;;;;;;;19.93;92.39;101410.28;5029488;28;20104;-78
2022/08/26 00:27:44;;;;;;;15.38;7.00;;;;;;;19.93;92.31;101418.28;5030167;28;20053;-78
2022/08/26 00:30:15;;;;;;;12.98;7.15;;;;;;;19.94;92.30;101413.78;5028272;28;20060;-78
2022/08/26 00:32:41;;;;;;;12.00;6.90;;;;;;;19.92;91.97;101413.94;5027289;28;20029;-78
2022/08/26 00:35:07;;;;;;;15.15;6.95;;;;;;;19.90;92.17;101413.25;5034746;28;20028;-78
2022/08/26 00:37:33;;;;;;;12.82;6.07;;;;;;;19.90;92.20;101417.78;5046762;28;20037;-78
2022/08/26 00:39:58;;;;;;;15.23;6.60;;;;;;;19.87;92.54;101421.59;5046323;28;20433;-78
2022/08/26 00:42:23;;;;;;;11.25;6.60;;;;;;;19.88;92.60;101423.28;5049038;28;20040;-78
2022/08/26 00:44:49;;;;;;;12.80;6.50;;;;;;;19.84;92.51;101416.59;5080539;28;20167;-78
2022/08/26 00:47:23;;;;;;;13.55;6.40;;;;;;;19.86;92.49;101414.59;5045807;28;20029;-77
2022/08/26 00:49:50;;;;;;;11.05;5.70;;;;;;;19.87;92.55;101402.91;5080669;28;20024;-79
2022/08/26 00:52:18;;;;;;;15.85;6.35;;;;;;;19.83;92.90;101408.72;5046450;28;20033;-78
2022/08/26 00:54:52;;;;;;;13.90;6.20;;;;;;;19.82;93.05;101410.56;5046221;28;20530;-78
2022/08/26 00:57:18;;;;;;;13.73;6.40;;;;;;;19.86;92.62;101408.41;5080331;28;20036;-78
2022/08/26 00:59:47;;;;;;;15.65;6.03;;;;;;;19.88;92.06;101415.25;5048240;28;20048;-78
2022/08/26 01:02:12;;;;;;;18.55;6.57;;;;;;;19.83;92.60;101416.75;5044840;28;20035;-78
2022/08/26 01:04:38;;;;;;;14.38;5.75;;;;;;;19.87;92.47;101421.59;5048360;28;20025;-78
2022/08/26 01:07:04;;;;;;;14.10;6.13;;;;;;;19.90;92.21;101418.59;5078924;28;20032;-78
2022/08/26 01:09:30;;;;;;;11.50;5.20;;;;;;;19.90;92.26;101413.25;5046595;28;20029;-78
2022/08/26 01:11:59;;;;;;;13.73;5.30;;;;;;;19.91;91.88;101417.59;5047870;28;20017;-78
2022/08/26 01:14:28;;;;;;;16.42;6.00;;;;;;;19.87;92.15;101424.28;5079659;28;20110;-78
2022/08/26 01:16:54;;;;;;;12.68;5.28;;;;;;;19.86;92.34;101422.59;5080543;28;20471;-78
2022/08/26 01:19:30;;;;;;;12.38;5.38;;;;;;;19.87;92.33;101426.09;5049362;28;20031;-78
2022/08/26 01:21:59;;;;;;;13.07;6.28;;;;;;;19.86;92.16;101419.94;5040144;28;20024;-78
2022/08/26 01:24:27;;;;;;;12.05;5.22;;;;;;;19.85;92.20;101412.91;5028282;28;20395;-78
2022/08/26 01:26:58;;;;;;;13.82;5.75;;;;;;;19.89;91.91;101413.44;5039308;28;20368;-78
2022/08/26 01:29:24;;;;;;;11.02;5.47;;;;;;;19.89;91.66;101411.59;5048837;28;20029;-78
2022/08/26 01:31:54;;;;;;;13.38;6.13;;;;;;;19.86;92.00;101411.91;5049403;28;20378;-78
2022/08/26 01:34:24;;;;;;;19.00;6.15;;;;;;;19.85;91.95;101409.41;5049472;28;20096;-78
2022/08/26 01:37:11;;;;;;;13.90;6.35;;;;;;;19.81;92.34;101403.53;5048739;28;20371;-78
2022/08/26 01:39:36;;;;;;;9.30;5.07;;;;;;;19.85;91.79;101409.41;5049998;28;20033;-77
2022/08/26 01:42:04;;;;;;;14.68;5.45;;;;;;;19.82;92.03;101410.56;5048341;28;20475;-77
2022/08/26 01:44:35;;;;;;;13.48;6.30;;;;;;;19.83;91.89;101412.25;5045644;28;20069;-78
2022/08/26 01:47:01;;;;;;;12.25;5.40;;;;;;;19.82;91.95;101410.56;5047045;28;20104;-77
2022/08/26 01:49:27;;;;;;;10.98;5.32;;;;;;;19.81;91.91;101402.72;5046966;28;20135;-77
2022/08/26 01:51:55;;;;;;;11.88;4.75;;;;;;;19.77;91.99;101410.22;5079944;28;20025;-77
2022/08/26 01:54:22;;;;;;;16.08;5.10;;;;;;;19.79;91.86;101410.03;5079855;28;20059;-77
2022/08/26 01:56:49;;;;;;;10.45;5.10;;;;;;;19.81;91.64;101418.72;5046946;28;20048;-78
2022/08/26 01:59:17;;;;;;;12.25;4.70;;;;;;;19.80;91.67;101417.91;5045966;28;20017;-76
2022/08/26 02:01:42;;;;;;;11.43;4.80;;;;;;;19.81;91.66;101419.56;5047634;28;20029;-78
2022/08/26 02:04:22;;;;;;;12.60;4.43;;;;;;;19.85;91.43;101422.75;5046365;28;20021;-78
2022/08/26 02:06:48;;;;;;;10.88;4.20;;;;;;;19.84;91.18;101421.09;5047699;28;20108;-78
2022/08/26 02:09:16;;;;;;;10.50;4.15;;;;;;;19.78;91.64;101422.56;5045969;28;20021;-78
2022/08/26 02:11:41;;;;;;;15.55;4.97;;;;;;;19.77;91.28;101423.56;5047063;28;20033;-78
2022/08/26 02:14:10;;;;;;;9.98;3.65;;;;;;;19.75;91.58;101430.06;5050309;28;20025;-78
2022/08/26 02:16:40;;;;;;;6.93;3.40;;;;;;;19.77;91.59;101426.22;5082263;28;20105;-77
2022/08/26 02:19:11;;;;;;;9.65;3.80;;;;;;;19.76;91.36;101426.38;5049576;28;20028;-77
2022/08/26 02:21:38;;;;;;;9.55;3.55;;;;;;;19.80;91.06;101433.91;5051224;28;20032;-77
2022/08/26 02:24:13;;;;;;;9.13;3.78;;;;;;;19.78;91.22;101430.56;5049082;28;20025;-77
2022/08/26 02:26:40;;;;;;;9.85;3.85;;;;;;;19.76;91.38;101443.25;5051788;28;20025;-78
2022/08/26 02:29:29;;;;;;;11.70;4.00;;;;;;;19.71;91.45;101434.88;5051599;28;20502;-77
2022/08/26 02:31:54;;;;;;;11.77;4.00;;;;;;;19.74;91.04;101442.56;5048915;28;20025;-78
2022/08/26 02:34:31;;;;;;;8.55;4.00;;;;;;;19.70;91.46;101438.56;5049588;28;20033;-76
2022/08/26 02:37:03;;;;;;;11.10;4.00;;;;;;;19.69;91.29;101443.06;5051592;28;20159;-77
2022/08/26 02:39:29;;;;;;;11.25;3.83;;;;;;;19.64;91.69;101440.03;5051822;28;20029;-76
2022/08/26 02:41:55;;;;;;;9.80;4.10;;;;;;;19.64;91.63;101439.19;5052043;28;20474;-76
2022/08/26 02:44:20;;;;;;;10.52;4.22;;;;;;;19.57;91.82;101444.28;5051000;28;20048;-76
2022/08/26 02:46:46;;;;;;;11.73;4.35;;;;;;;19.58;91.53;101451.31;5050476;28;20025;-75
2022/08/26 02:49:11;;;;;;;8.95;3.65;;;;;;;19.55;91.83;101440.09;5049975;28;20025;-77
2022/08/26 02:51:37;;;;;;;9.75;4.00;;;;;;;19.58;91.93;101439.78;5049724;28;20103;-78
2022/08/26 02:54:03;;;;;;;14.32;3.88;;;;;;;19.50;92.53;101442.38;5048577;28;20028;-76
2022/08/26 02:56:31;;;;;;;11.55;4.10;;;;;;;19.50;92.13;101439.72;5050124;28;20021;-76
2022/08/26 02:58:56;;;;;;;10.50;4.93;;;;;;;19.48;92.51;101444.38;5050036;28;20032;-76
2022/08/26 03:01:25;;;;;;;8.70;4.38;;;;;;;19.49;91.90;101438.03;5049772;28;20033;-76
2022/08/26 03:03:55;;;;;;;13.55;4.93;;;;;;;19.39;93.03;101441.66;5050456;28;20021;-76
2022/08/26 03:06:21;;;;;;;17.17;4.80;;;;;;;19.48;92.54;101436.34;5049003;28;20033;-76
2022/08/26 03:08:46;;;;;;;11.75;4.45;;;;;;;19.45;92.54;101439.34;5048204;28;20071;-76
2022/08/26 03:11:12;;;;;;;13.63;4.65;;;;;;;19.40;93.09;101437.16;5081744;28;20063;-78
2022/08/26 03:13:39;;;;;;;13.45;4.45;;;;;;;19.45;92.87;101444.69;5048415;28;20029;-77
2022/08/26 03:16:05;;;;;;;12.77;4.57;;;;;;;19.40;93.26;101440.66;5048123;28;20021;-77
2022/08/26 03:18:30;;;;;;;14.55;4.55;;;;;;;19.39;93.25;101436.31;5050101;28;20063;-77
2022/08/26 03:20:55;;;;;;;10.30;4.78;;;;;;;19.45;92.91;101434.84;5049045;28;20029;-77
2022/08/26 03:23:24;;;;;;;11.52;4.60;;;;;;;19.40;92.99;101435.31;5029722;28;20029;-77
2022/08/26 03:25:51;;;;;;;12.05;4.53;;;;;;;19.38;93.58;101439.97;5040887;28;20017;-77
2022/08/26 03:28:17;;;;;;;12.73;4.70;;;;;;;19.38;93.53;101433.81;5049339;28;20025;-77
2022/08/26 03:30:44;;;;;;;9.30;4.25;;;;;;;19.37;93.63;101438.31;5049941;28;20039;-77
2022/08/26 03:33:10;;;;;;;13.57;4.70;;;;;;;19.39;93.38;101447.00;5050753;28;20390;-76
2022/08/26 03:35:37;;;;;;;14.82;4.20;;;;;;;19.45;93.19;101440.19;5050529;28;20032;-76
2022/08/26 03:38:03;;;;;;;11.35;3.92;;;;;;;19.44;93.15;101443.00;5050630;28;20102;-76
2022/08/26 03:40:32;;;;;;;12.85;3.67;;;;;;;19.45;92.86;101442.00;5051865;28;20110;-76
2022/08/26 03:42:58;;;;;;;9.50;3.35;;;;;;;19.44;92.66;101443.00;5048801;28;20029;-76
2022/08/26 03:45:23;;;;;;;10.70;3.42;;;;;;;19.45;92.68;101439.34;5048157;28;20045;-76
2022/08/26 03:47:49;;;;;;;8.88;3.10;;;;;;;19.49;92.61;101451.38;5049431;28;20036;-76
2022/08/26 03:50:17;;;;;;;8.32;3.20;;;;;;;19.46;92.43;101444.53;5080020;28;20536;-76
2022/08/26 03:52:44;;;;;;;16.33;4.05;;;;;;;19.42;92.58;101446.66;5049537;28;20550;-76
2022/08/26 03:55:10;;;;;;;7.95;2.83;;;;;;;19.44;92.21;101445.69;5048549;28;20108;-76
2022/08/26 03:57:35;;;;;;;9.85;3.17;;;;;;;19.38;92.72;101439.13;5047231;28;20509;-76
2022/08/26 04:00:01;;;;;;;12.48;2.97;;;;;;;19.40;92.52;101442.50;5048060;28;20013;-77
2022/08/26 04:02:26;;;;;;;12.80;3.55;;;;;;;19.36;92.77;101449.97;5047972;28;20732;-77
2022/08/26 04:04:54;;;;;;;11.45;3.22;;;;;;;19.36;92.91;101451.81;5048215;28;20024;-78
2022/08/26 04:07:19;;;;;;;10.70;2.85;;;;;;;19.39;92.79;101455.00;5047695;28;20021;-77
2022/08/26 04:09:45;;;;;;;10.48;3.50;;;;;;;19.39;92.78;101447.00;5047559;28;20091;-77
2022/08/26 04:12:11;;;;;;;9.50;3.75;;;;;;;19.40;92.74;101448.66;5029649;28;20487;-77
2022/08/26 04:14:37;;;;;;;10.50;3.45;;;;;;;19.35;93.01;101445.63;5046904;28;20033;-76
2022/08/26 04:17:03;;;;;;;9.82;3.33;;;;;;;19.41;92.83;101446.84;5046119;28;20021;-75
2022/08/26 04:19:30;;;;;;;14.65;3.45;;;;;;;19.44;92.39;101448.34;5047462;28;20029;-76
2022/08/26 04:21:55;;;;;;;8.65;2.75;;;;;;;19.38;92.63;101439.97;5048972;28;20059;-76
2022/08/26 04:24:23;;;;;;;10.93;2.92;;;;;;;19.37;92.77;101438.31;5049805;28;20052;-76
2022/08/26 04:26:49;;;;;;;9.65;2.88;;;;;;;19.38;92.66;101439.13;5050093;28;20083;-76
2022/08/26 04:29:19;;;;;;;7.78;2.88;;;;;;;19.35;92.83;101440.28;5049643;28;20048;-76
2022/08/26 04:31:46;;;;;;;9.32;2.95;;;;;;;19.31;92.93;101438.94;5046787;28;20029;-76
2022/08/26 04:34:12;;;;;;;10.88;3.10;;;;;;;19.28;92.90;101439.25;5049811;28;20033;-76
2022/08/26 04:36:39;;;;;;;10.13;2.97;;;;;;;19.29;93.04;101440.09;5050224;28;20458;-76
2022/08/26 04:39:05;;;;;;;9.00;3.03;;;;;;;19.26;93.31;101443.91;5048337;28;20032;-77
2022/08/26 04:41:31;;;;;;;11.20;3.08;;;;;;;19.28;93.20;101444.59;5048085;28;20033;-77
2022/08/26 04:43:57;;;;;;;11.98;3.13;;;;;;;19.28;92.82;101455.25;5048301;28;20045;-77
2022/08/26 04:46:23;;;;;;;9.02;3.17;;;;;;;19.30;92.59;101461.28;5035478;28;20702;-76
2022/08/26 04:48:50;;;;;;;12.07;2.90;;;;;;;19.31;92.93;101454.94;5034683;28;20052;-76
2022/08/26 04:51:17;;;;;;;9.85;2.83;;;;;;;19.35;92.60;101456.31;5047269;28;20762;-77
2022/08/26 04:53:43;;;;;;;12.80;2.88;;;;;;;19.28;93.00;101454.41;5046302;28;20043;-77
2022/08/26 04:56:08;;;;;;;7.72;2.55;;;;;;;19.29;92.79;101456.94;5047399;28;20627;-76
2022/08/26 04:58:34;;;;;;;10.95;3.00;;;;;;;19.30;92.89;101458.59;5048622;28;20429;-77
2022/08/26 05:01:00;;;;;;;8.73;2.63;;;;;;;19.27;92.92;101458.91;5045567;28;20387;-77
2022/08/26 05:03:26;;;;;;;10.10;2.90;;;;;;;19.28;92.80;101452.59;5047333;28;20027;-77
2022/08/26 05:05:54;;;;;;;12.20;3.03;;;;;;;19.27;92.87;101458.06;5048094;28;20427;-78
2022/08/26 05:08:21;;;;;;;11.85;3.50;;;;;;;19.31;92.81;101460.28;5044804;28;20033;-76
2022/08/26 05:10:49;;;;;;;10.88;2.97;;;;;;;19.30;93.13;101458.59;5046920;28;20036;-76
2022/08/26 05:13:17;;;;;;;11.80;3.20;;;;;;;19.30;93.22;101457.78;5045939;28;20029;-77
2022/08/26 05:15:43;;;;;;;11.45;2.92;;;;;;;19.35;92.85;101458.97;5048372;28;20409;-76
2022/08/26 05:18:09;;;;;;;11.18;2.78;;;;;;;19.34;93.03;101465.31;5079700;28;20025;-77
2022/08/26 05:20:46;;;;;;;9.77;2.80;;;;;;;19.40;92.74;101470.00;5045177;28;20550;-77
2022/08/26 05:23:12;;;;;;;10.15;2.80;;;;;;;19.38;93.02;101464.00;5030021;28;20029;-76
2022/08/26 05:25:40;;;;;;;11.07;3.05;;;;;;;19.40;93.06;101456.66;5045669;28;20025;-76
2022/08/26 05:28:06;;;;;;;6.90;2.20;;;;;;;19.38;93.39;101465.81;5046166;28;20025;-75
2022/08/26 05:30:32;;;;;;;10.68;2.90;;;;;;;19.38;93.14;101465.81;5049191;28;20028;-76
2022/08/26 05:32:57;;;;;;;10.18;2.92;;;;;;;19.46;93.07;101462.38;5046845;28;20021;-77
2022/08/26 05:35:27;;;;;;;10.60;2.80;;;;;;;19.50;92.31;101458.41;5048361;28;20028;-75
2022/08/26 05:37:53;;;;;;;11.82;2.75;;;;;;;19.51;92.42;101462.75;5048941;28;20450;-75
2022/08/26 05:40:18;;;;;;;9.35;2.90;;;;;;;19.53;92.53;101458.94;5046847;28;20045;-77
2022/08/26 05:42:46;;;;;;;12.05;2.90;;;;;;;19.56;92.76;101473.81;5046700;28;20029;-77
2022/08/26 05:45:11;;;;;;;11.75;2.60;;;;;;;19.54;92.39;101475.81;5046671;28;20223;-77
2022/08/26 05:47:37;;;;;;;9.05;2.67;;;;;;;19.57;91.85;101467.47;5049548;28;20044;-77
2022/08/26 05:50:04;;;;;;;11.77;2.55;;;;;;;19.57;92.23;101478.16;5050609;28;20082;-77
2022/08/26 05:52:31;;;;;;;14.15;2.70;;;;;;;19.62;92.10;101479.41;5052069;28;20057;-77
2022/08/26 05:54:57;;;;;;;9.18;2.30;;;;;;;19.69;91.58;101482.28;5051587;28;20119;-76
2022/08/26 05:57:23;;;;;;;17.52;3.05;;;;;;;19.65;91.25;101486.25;5048902;28;20072;-77
2022/08/26 05:59:48;;;;;;;11.95;2.72;;;;;;;19.68;90.92;101489.44;5052204;28;20032;-77
2022/08/26 06:02:14;;;;;;;13.48;2.20;;;;;;;19.70;91.04;101486.63;5051592;28;20104;-77
2022/08/26 06:04:39;;;;;;;12.45;2.63;;;;;;;19.77;90.79;101498.34;5051979;28;20025;-76
2022/08/26 06:07:04;;;;;;;13.60;2.35;;;;;;;19.80;90.35;101498.03;5051729;28;20025;-77
2022/08/26 06:09:30;;;;;;;12.35;2.22;;;;;;;19.81;89.99;101504.19;5050917;28;20028;-77
2022/08/26 06:11:57;;;;;;;11.02;2.38;;;;;;;19.81;89.73;101509.53;5050743;28;20393;-77
2022/08/26 06:14:24;;;;;;;13.27;2.55;;;;;;;19.78;89.73;101500.00;5054436;28;20029;-76
2022/08/26 06:16:50;;;;;;;13.05;2.42;;;;;;;19.80;89.90;101507.88;5059676;28;20033;-76
2022/08/26 06:19:16;;;;;;;11.20;2.20;;;;;;;19.80;90.18;101506.03;5059081;28;20031;-76
2022/08/26 06:21:45;;;;;;;14.35;1.85;;;;;;;19.81;89.59;101509.53;5052267;28;20395;-76
2022/08/26 06:27:03;;;;;;;12.48;1.90;;;;;;;19.86;89.67;101524.09;5035667;28;20088;-76
2022/08/26 06:29:32;;;;;;;13.02;2.00;;;;;;;19.92;89.43;101522.63;5043970;28;20020;-76
2022/08/26 06:31:58;;;;;;;15.35;1.90;;;;;;;19.97;89.12;101515.81;5056935;28;20021;-76
2022/08/26 06:34:27;;;;;;;13.35;2.25;;;;;;;19.96;88.36;101516.81;5094418;28;20067;-76
2022/08/26 06:36:53;;;;;;;9.05;1.70;;;;;;;20.00;88.70;101517.31;5064432;28;20028;-75
2022/08/26 06:39:18;;;;;;;6.82;1.40;;;;;;;20.02;88.26;101521.53;5064412;28;20021;-76
2022/08/26 06:41:44;;;;;;;10.15;2.10;;;;;;;20.06;88.34;101518.53;5064756;28;20029;-78
2022/08/26 06:44:11;;;;;;;8.80;2.05;;;;;;;20.07;87.88;101521.06;5054892;28;20048;-77
2022/08/26 06:46:37;;;;;;;10.32;2.50;;;;;;;20.16;87.77;101529.94;5053330;28;20048;-76
2022/08/26 06:49:04;;;;;;;6.22;1.75;;;;;;;20.23;87.70;101530.97;5053293;28;20032;-78
2022/08/26 06:51:32;;;;;;;8.32;1.70;;;;;;;20.19;87.61;101529.63;5068278;28;20021;-77
2022/08/26 06:53:59;;;;;;;10.07;1.98;;;;;;;20.17;87.27;101527.13;5067842;28;20016;-78
2022/08/26 06:56:30;;;;;;;6.57;2.10;;;;;;;20.20;86.49;101529.47;5066394;28;20025;-78
2022/08/26 06:58:58;;;;;;;8.17;1.97;;;;;;;20.18;86.84;101526.13;5061536;28;20021;-77
2022/08/26 07:01:27;;;;;;;6.13;1.60;;;;;;;20.18;86.50;101530.63;5063276;28;20025;-78
2022/08/26 07:03:58;;;;;;;7.72;1.75;;;;;;;20.20;86.66;101533.97;5051435;28;20380;-78
2022/08/26 07:06:26;;;;;;;10.57;1.92;;;;;;;20.19;86.20;101530.47;5062764;28;20102;-77
2022/08/26 07:09:01;;;;;;;8.07;1.70;;;;;;;20.18;86.77;101533.28;5052054;28;20032;-77
2022/08/26 07:11:27;;;;;;;7.05;1.67;;;;;;;20.20;87.30;101525.97;5050705;28;20053;-77
2022/08/26 07:13:54;;;;;;;6.10;1.20;;;;;;;20.29;86.46;101531.19;5051758;28;20142;-78
2022/08/26 07:16:20;;;;;;;7.60;1.75;;;;;;;20.38;85.79;101529.38;5052147;28;20013;-78
2022/08/26 07:18:47;;;;;;;10.25;1.55;;;;;;;20.43;85.72;101532.47;5050674;28;20021;-78
2022/08/26 07:21:15;;;;;;;5.63;1.90;;;;;;;20.49;84.50;101530.97;5049593;28;20782;-77
2022/08/26 07:23:40;;;;;;;9.82;1.70;;;;;;;20.50;84.54;101532.66;5051985;28;20096;-77
2022/08/26 07:26:08;;;;;;;7.80;1.98;;;;;;;20.55;84.06;101536.50;5050949;28;20108;-78
2022/08/26 07:28:34;;;;;;;8.40;1.95;;;;;;;20.60;83.86;101528.84;5050635;28;20036;-78
2022/08/26 07:31:20;;;;;;;7.88;1.65;;;;;;;20.62;83.72;101534.84;5050249;28;20497;-78
2022/08/26 07:33:46;;;;;;;5.28;1.55;;;;;;;20.62;83.37;101536.69;5052967;28;20021;-78
2022/08/26 07:36:13;;;;;;;5.30;1.50;;;;;;;20.64;83.47;101540.88;5051494;28;20857;-77
2022/08/26 07:38:40;;;;;;;7.28;1.35;;;;;;;20.69;82.99;101537.72;5063553;28;20001;-79
2022/08/26 07:41:06;;;;;;;5.35;1.45;;;;;;;20.78;82.49;101542.09;5069331;28;20001;-76
2022/08/26 07:43:33;;;;;;;6.00;1.60;;;;;;;20.87;82.47;101545.63;5061750;28;20036;-77
2022/08/26 07:45:58;;;;;;;6.68;1.50;;;;;;;20.95;81.45;101542.97;5090064;28;20036;-79
2022/08/26 07:48:24;;;;;;;11.30;1.95;;;;;;;20.93;81.58;101548.50;5054043;28;20029;-78
2022/08/26 07:50:51;;;;;;;6.80;1.88;;;;;;;21.01;80.85;101547.66;5054479;28;20035;-77
2022/08/26 07:53:16;;;;;;;7.70;1.92;;;;;;;21.06;80.83;101550.69;5083272;28;20083;-78
2022/08/26 07:55:42;;;;;;;8.93;2.05;;;;;;;21.12;80.24;101551.84;5059931;28;20029;-79
2022/08/26 07:58:07;;;;;;;6.18;1.67;;;;;;;21.17;80.23;101557.56;5064176;28;20099;-77
2022/08/26 08:00:33;;;;;;;5.68;1.55;;;;;;;21.23;79.16;101560.47;5064069;28;20493;-79
2022/08/26 08:03:00;;;;;;;8.77;2.25;;;;;;;21.22;78.87;101560.59;5061530;28;20475;-78
2022/08/26 08:05:26;;;;;;;5.82;1.50;;;;;;;21.32;79.31;101566.66;5056631;28;20371;-78
2022/08/26 08:07:53;;;;;;;4.68;1.40;;;;;;;21.39;78.97;101561.47;5054674;28;20402;-78
2022/08/26 08:10:22;;;;;;;9.45;1.60;;;;;;;21.45;77.64;101564.31;5059549;28;20059;-78
2022/08/26 08:12:49;;;;;;;9.98;1.85;;;;;;;21.40;77.67;101560.47;5062538;28;20104;-78
2022/08/26 08:15:16;;;;;;;5.65;1.50;;;;;;;21.49;78.10;101562.13;5056812;28;20028;-79
2022/08/26 08:17:42;;;;;;;5.18;1.55;;;;;;;21.54;77.74;101562.47;5052337;28;20048;-77
2022/08/26 08:20:08;;;;;;;6.70;1.60;;;;;;;21.49;75.61;101562.13;5052456;28;20024;-77
2022/08/26 08:22:34;;;;;;;8.30;1.67;;;;;;;21.55;76.17;101556.94;5048134;28;20035;-77
2022/08/26 08:24:59;;;;;;;6.30;1.50;;;;;;;21.54;74.82;101554.44;5048559;28;20376;-77
2022/08/26 08:27:25;;;;;;;4.55;1.42;;;;;;;21.48;74.61;101568.50;5049463;28;20479;-77
2022/08/26 08:29:54;;;;;;;7.07;1.50;;;;;;;21.45;74.50;101563.47;5049719;28;20067;-77
2022/08/26 08:32:20;;;;;;;7.05;1.58;;;;;;;21.42;74.80;101570.00;5048245;28;20057;-78
2022/08/26 08:34:46;;;;;;;3.92;1.13;;;;;;;21.46;75.28;101563.31;5048202;28;20056;-75
2022/08/26 08:37:12;;;;;;;5.95;1.30;;;;;;;21.50;74.97;101570.00;5046536;28;20864;-78
2022/08/26 08:39:37;;;;;;;6.22;1.45;;;;;;;21.54;74.34;101567.81;5048233;28;20028;-77
2022/08/26 08:42:24;;;;;;;6.45;1.70;;;;;;;21.62;73.99;101557.13;5048887;28;20730;-78
2022/08/26 08:44:51;;;;;;;5.65;1.45;;;;;;;21.67;73.69;101565.50;5046602;28;20048;-77
2022/08/26 08:47:28;;;;;;;7.93;1.40;;;;;;;21.78;74.37;101567.81;5044029;28;20509;-77
2022/08/26 08:49:59;;;;;;;6.70;1.38;;;;;;;21.84;73.83;101559.09;5047946;28;20057;-78
2022/08/26 08:52:33;;;;;;;9.38;1.70;;;;;;;21.77;73.34;101560.78;5046772;28;20028;-77
2022/08/26 08:54:59;;;;;;;4.30;1.20;;;;;;;21.75;74.40;101564.66;5047932;28;20398;-78
2022/08/26 08:57:45;;;;;;;5.95;1.50;;;;;;;21.62;74.45;101562.50;5048713;28;20024;-77
2022/08/26 09:00:16;;;;;;;8.10;1.67;;;;;;;21.60;74.47;101572.50;5047893;28;20471;-77
2022/08/26 09:02:49;;;;;;;6.07;1.42;;;;;;;21.53;74.47;101579.53;5050240;28;20487;-77
2022/08/26 09:05:24;;;;;;;6.70;1.60;;;;;;;21.48;74.43;101577.38;5049616;28;20103;-77
2022/08/26 09:07:58;;;;;;;8.68;1.60;;;;;;;21.41;74.50;101583.56;5047131;28;20024;-77
2022/08/26 09:10:27;;;;;;;3.83;1.40;;;;;;;21.43;74.77;101569.00;5029883;28;20586;-77
2022/08/26 09:12:53;;;;;;;5.50;1.25;;;;;;;21.48;74.35;101573.84;5028669;28;20056;-77
2022/08/26 09:16:00;;;;;;;5.65;1.60;;;;;;;21.55;74.81;101582.88;5028648;28;20068;-78
2022/08/26 09:18:53;;;;;;;7.32;1.50;;;;;;;21.55;74.95;101572.19;5037000;28;20067;-78
2022/08/26 09:21:19;;;;;;;;;;;;;;;21.75;74.51;101578.88;5045374;28;20029;-77
2022/08/26 09:23:46;;;;;;;5.03;1.20;;;;;;;21.84;73.71;101569.81;5048828;28;19909;-78
2022/08/26 09:26:16;;;;;;;8.30;2.03;;;;;;;21.88;72.19;101579.19;5050242;28;20203;-78
2022/08/26 09:28:47;;;;;;;5.30;1.30;;;;;;;21.86;73.27;101583.88;5051645;28;20029;-77
2022/08/26 09:31:20;;;;;;;8.63;1.38;;;;;;;21.93;72.69;101591.25;5051683;28;20040;-77
2022/08/26 09:33:46;;;;;;;7.28;1.67;;;;;;;21.82;72.73;101579.88;5050518;28;20028;-77
2022/08/26 09:36:32;;;;;;;11.13;1.92;;;;;;;21.83;72.80;101586.91;5050598;28;20039;-77
2022/08/26 09:38:57;;;;;;;10.57;2.35;;;;;;;21.77;73.21;101584.91;5050613;28;20694;-77
2022/08/26 09:41:30;;;;;;;9.13;1.50;;;;;;;21.86;72.55;101591.94;5067110;28;20035;-78
2022/08/26 09:44:15;;;;;;;;;;;;;;;21.98;73.31;101589.72;5050844;28;20041;-77
2022/08/26 09:46:55;;;;;;;13.07;2.03;;;;;;;21.90;73.08;101587.91;5052033;28;19912;-76
2022/08/26 09:49:34;;;;;;;8.25;1.83;;;;;;;21.88;71.69;101584.56;5051348;28;20029;-75
2022/08/26 09:52:14;;;;;;;4.97;1.70;;;;;;;21.89;72.03;101599.63;5051708;28;20433;-76
2022/08/26 09:54:43;;;;;;;7.60;1.40;;;;;;;21.85;71.32;101582.22;5051093;28;20031;-76
2022/08/26 09:57:12;;;;;;;4.85;1.40;;;;;;;21.93;71.99;101596.59;5051150;28;20025;-76
2022/08/26 09:59:37;;;;;;;10.80;1.70;;;;;;;21.96;72.52;101590.91;5050414;28;20494;-76
2022/08/26 10:02:18;;;;;;;10.95;1.58;;;;;;;21.85;72.29;101595.63;5050686;28;20032;-77
2022/08/26 10:04:53;;;;;;;10.10;1.70;;;;;;;21.75;72.15;101594.97;5051958;28;20032;-77
2022/08/26 10:07:47;;;;;;;11.88;1.80;;;;;;;21.71;72.15;101596.31;5051158;28;20013;-77
2022/08/26 10:10:16;;;;;;;7.65;2.00;;;;;;;21.71;72.23;101590.09;5049617;28;20036;-76
2022/08/26 10:13:02;;;;;;;8.57;1.40;;;;;;;21.72;71.79;101589.09;5050813;28;20067;-76
2022/08/26 10:15:37;;;;;;;6.60;1.40;;;;;;;21.70;72.12;101594.63;5051930;28;20033;-76
2022/08/26 10:18:11;;;;;;;9.90;1.63;;;;;;;21.83;71.79;101592.25;5032294;28;20113;-76
2022/08/26 10:20:46;;;;;;;4.68;1.48;;;;;;;21.95;71.54;101594.59;5033181;28;20026;-76
2022/08/26 10:23:17;;;;;;;6.53;1.40;;;;;;;21.96;71.18;101590.91;5050235;28;20021;-76
2022/08/26 10:25:57;;;;;;;9.52;1.90;;;;;;;22.08;71.38;101589.59;5053270;28;20064;-77
2022/08/26 10:28:38;;;;;;;7.40;1.38;;;;;;;22.12;70.96;101585.56;5051509;28;20433;-76
2022/08/26 10:31:26;;;;;;;7.90;1.70;;;;;;;22.16;70.62;101577.00;5052052;28;20039;-77
2022/08/26 10:33:52;;;;;;;6.13;1.40;;;;;;;22.17;70.93;101581.38;5049805;28;20099;-77
2022/08/26 10:39:10;;;;;;;7.90;1.50;;;;;;;22.18;70.88;101590.25;5051685;28;20087;-77
2022/08/26 10:41:40;;;;;;;6.25;1.40;;;;;;;22.06;69.81;101586.25;5052989;28;20104;-77
2022/08/26 10:44:07;;;;;;;8.60;1.35;;;;;;;22.08;70.15;101585.06;5051600;28;20471;-77
2022/08/26 10:46:46;;;;;;;5.55;1.35;;;;;;;22.16;70.10;101584.22;5053283;28;20438;-78
2022/08/26 10:49:14;;;;;;;8.48;1.80;;;;;;;22.11;69.96;101583.91;5052353;28;20033;-76
2022/08/26 10:51:49;;;;;;;4.97;1.30;;;;;;;22.06;69.69;101575.53;5041980;28;20037;-76
2022/08/26 10:54:30;;;;;;;8.23;1.70;;;;;;;22.11;69.85;101586.56;5032263;28;20152;-76
2022/08/26 10:57:34;;;;;;;6.43;1.48;;;;;;;22.16;70.25;101587.72;5032410;28;20025;-76
2022/08/26 11:03:09;;;;;;;6.50;1.55;;;;;;;21.99;69.38;101590.56;5031950;28;20103;-75
2022/08/26 11:05:34;;;;;;;5.28;1.10;;;;;;;21.97;69.25;101581.84;5031492;28;20100;-75
2022/08/26 11:08:18;;;;;;;6.05;1.20;;;;;;;21.95;70.19;101589.22;5038348;28;20127;-76
2022/08/26 11:10:59;;;;;;;9.63;1.50;;;;;;;21.87;69.80;101592.75;5055486;28;20033;-77
2022/08/26 11:14:01;;;;;;;7.22;1.20;;;;;;;21.88;70.05;101589.91;5032416;28;20044;-76
2022/08/26 11:16:44;;;;;;;5.13;1.30;;;;;;;21.79;70.08;101590.09;4989722;28;20121;-76
2022/08/26 11:19:33;;;;;;;9.23;1.60;;;;;;;21.75;70.19;101597.63;5028345;28;20061;-76
2022/08/26 11:22:26;;;;;;;6.72;1.80;;;;;;;21.80;70.55;101586.41;5043378;28;20101;-75
2022/08/26 11:24:54;;;;;;;5.82;1.20;;;;;;;21.73;70.40;101590.78;5057276;28;20077;-76
2022/08/26 11:27:23;;;;;;;8.43;1.70;;;;;;;21.68;70.79;101593.13;5073573;28;20016;-76
2022/08/26 11:30:07;;;;;;;6.80;1.63;;;;;;;21.67;70.49;101589.59;5072996;28;20028;-76
2022/08/26 11:32:33;;;;;;;9.75;1.30;;;;;;;21.54;70.19;101586.56;5058616;28;20035;-79
2022/08/26 11:35:02;;;;;;;11.95;2.15;;;;;;;21.61;70.88;101592.94;5043700;28;20033;-77
2022/08/26 11:37:36;;;;;;;8.90;1.88;;;;;;;21.65;70.92;101586.25;5053862;28;20043;-76
2022/08/26 11:40:06;;;;;;;6.50;1.58;;;;;;;21.60;70.11;101591.25;5051829;28;20120;-77